Bowling Green, Florida
Current Conditions -  °F | °C
As of 11:47 AM on Saturday 22 Nov 2014 (Local Time) from KBOW Reporting Station
Broken Clouds Broken Clouds  
Wind Chill: 68°   Ceiling: 3000
Heat Index: 68°   Visibility: 7mi
Dew Point: 68°   Wind: 17mph
Humidity: 100%   Direction: 70°ENE
Pressure: 30.23"   Gusts: NA
Location:  27.64°N, 81.82°W
Report Text: KBOW 221647Z 07015KT 7SM SCT008 BKN030 20/20 A3023
Loading
Personal Weather Stations






























Interactive Weather Map New forecast layout! Learn more

10-Day Weather Forecast

Advertisements
Track Severe Weather on mobile